Latest Weather Observations for Snowtown

IDS60801

Issued at 5:31 pm CST Tuesday 20 April 2021 (issued every 10 minutes, with the page automatically refreshed every 10 minutes)

About weather observations | Map of weather stations | Latest weather observations for SA | Other Formats
Station Details ID: 021133 Name: RAYVILLE PARK Lat: -33.77 Lon: 138.22 Height: 109.1 m
Data from the previous 72 hours. | See also: Recent months at Snowtown
Date/Time
CST
Temp
°C
App
Temp
°C
Dew
Point
°C
Rel
Hum
%
Delta-T
°C
Wind Press
QNH
hPa
Press
MSL
hPa
Rain since
9am
mm
Dir  Spd
km/h
Gust
km/h
Spd
kts
Gust
kts
20/05:30pm 14.5 9.4 7.5 63 3.5 S 24 33 13 18 1017.8 1017.6 1.4
20/05:00pm 15.6 10.4 7.4 58 4.1 S 24 32 13 17 1017.6 1017.4 1.4
20/04:30pm 16.3 10.5 8.0 58 4.2 S 28 37 15 20 1017.3 1017.1 1.4
20/04:00pm 16.9 11.6 8.6 58 4.3 S 26 37 14 20 1017.1 1016.9 1.4
20/03:30pm 16.6 11.1 9.1 61 3.9 S 28 37 15 20 1016.8 1016.6 1.4
20/03:00pm 17.2 12.0 10.1 63 3.8 S 28 39 15 21 1016.7 1016.5 1.4
20/02:30pm 16.8 11.0 10.9 68 3.2 S 32 43 17 23 1016.6 1016.4 1.4
20/02:00pm 16.4 11.3 12.0 75 2.4 S 30 44 16 24 1016.7 1016.5 1.4
20/01:30pm 15.3 10.4 12.6 84 1.5 S 30 43 16 23 1016.8 1016.6 1.4
20/01:00pm 14.5 9.4 13.2 92 0.7 S 32 44 17 24 1016.7 1016.5 1.4
20/12:30pm 15.3 11.7 14.2 93 0.6 SSW 26 39 14 21 1016.6 1016.4 1.2
20/12:00pm 15.2 11.0 13.6 90 0.9 SW 28 37 15 20 1016.6 1016.4 1.0
20/11:30am 16.6 11.4 12.9 79 2.1 WSW 32 43 17 23 1016.2 1016.0 0.0
20/11:00am 18.6 12.8 10.7 60 4.3 W 32 48 17 26 1016.2 1016.0 0.0
20/10:30am 19.3 13.6 9.8 54 5.1 W 30 41 16 22 1016.2 1016.0 0.0
20/10:00am 18.6 12.4 9.4 55 4.9 W 32 43 17 23 1016.1 1015.9 0.0
20/09:30am 18.9 12.8 9.7 55 4.9 W 32 43 17 23 1016.2 1016.0 0.0
20/09:00am 17.4 12.2 10.3 63 3.8 WNW 28 39 15 21 1016.0 1015.8 0.0
20/08:30am 16.7 11.6 10.5 67 3.3 WNW 28 35 15 19 1015.9 1015.7 0.0
20/08:00am 15.6 12.0 9.7 68 3.1 NW 19 22 10 12 1015.9 1015.7 0.0
20/07:30am 11.9 8.9 7.8 76 2.0 NNW 13 17 7 9 1015.6 1015.4 0.0
20/07:00am 10.5 6.8 6.3 75 2.0 NNW 15 19 8 10 1015.4 1015.2 0.0
20/06:30am 12.3 8.3 6.8 69 2.6 NW 17 20 9 11 1015.5 1015.3 0.0
20/06:00am 12.0 8.2 7.5 74 2.2 NW 17 19 9 10 1015.3 1015.1 0.0
20/05:30am 8.9 5.5 5.8 81 1.4 NNW 13 15 7 8 1015.0 1014.8 0.0
20/05:00am 8.3 4.2 4.3 76 1.8 NNW 15 17 8 9 1014.6 1014.4 0.0
20/04:30am 8.2 3.5 3.3 71 2.1 NNW 17 20 9 11 1014.2 1014.0 0.0
20/04:00am 8.6 3.9 3.2 69 2.3 N 17 19 9 10 1014.2 1014.0 0.0
20/03:30am 9.3 4.6 3.3 66 2.6 N 17 17 9 9 1014.6 1014.4 0.0
20/03:00am 9.3 5.0 3.3 66 2.6 N 15 17 8 9 1015.0 1014.8 0.0
20/02:30am 8.6 3.8 2.6 66 2.5 NNW 17 20 9 11 1015.2 1015.0 0.0
20/02:00am 8.2 4.7 3.7 73 1.9 NNW 11 20 6 11 1015.4 1015.2 0.0
20/01:30am 10.2 7.8 5.4 72 2.2 W 7 7 4 4 1015.6 1015.4 0.0
20/01:00am 9.2 7.9 4.0 70 2.3 CALM 0 0 0 0 1015.8 1015.6 0.0
20/12:30am 8.6 5.6 2.2 64 2.7 SW 7 9 4 5 1015.8 1015.6 0.0
20/12:00am 8.5 5.2 2.7 67 2.5 WSW 9 11 5 6 1015.8 1015.6 0.0
 
Date/Time
CST
Temp
°C
App
Temp
°C
Dew
Point
°C
Rel
Hum
%
Delta-T
°C
Wind Press
QNH
hPa
Press
MSL
hPa
Rain since
9am
mm
Dir  Spd
km/h
Gust
km/h
Spd
kts
Gust
kts
19/11:30pm 8.3 5.9 1.9 64 2.7 S 4 7 2 4 1015.8 1015.6 0.0
19/11:00pm 8.3 5.5 1.9 64 2.7 SSW 6 9 3 5 1015.9 1015.7 0.0
19/10:30pm 8.4 4.6 1.8 63 2.7 W 11 13 6 7 1015.8 1015.6 0.0
19/10:00pm 9.1 6.1 2.0 61 3.0 SW 7 9 4 5 1015.7 1015.5 0.0
19/09:30pm 9.0 7.2 1.4 59 3.1 CALM 0 0 0 0 1015.7 1015.5 0.0
19/09:00pm 10.3 8.3 2.2 57 3.5 S 2 7 1 4 1015.7 1015.5 0.0
19/08:30pm 10.9 8.0 2.5 56 3.6 SW 7 9 4 5 1015.7 1015.5 0.0
19/08:00pm 10.8 7.4 1.6 53 3.9 WNW 9 11 5 6 1015.8 1015.6 0.0
19/07:30pm 11.5 8.5 2.0 52 4.1 W 7 9 4 5 1015.9 1015.7 0.0
19/07:00pm 12.4 8.3 2.3 50 4.4 WNW 13 13 7 7 1015.9 1015.7 0.0
19/06:30pm 13.2 9.5 2.1 47 4.8 WNW 11 13 6 7 1015.8 1015.6 0.0
19/06:00pm 15.9 12.5 2.0 39 6.2 WNW 9 11 5 6 1015.7 1015.5 0.0
19/05:30pm 19.8 16.4 3.9 35 7.6 NW 11 13 6 7 1015.6 1015.4 0.0
19/05:00pm 20.8 17.4 4.0 33 8.1 WNW 11 19 6 10 1015.7 1015.5 0.0
19/04:30pm 21.1 17.4 4.2 33 8.2 WNW 13 22 7 12 1015.9 1015.7 0.0
19/04:00pm 21.0 17.2 4.1 33 8.2 NW 13 22 7 12 1016.1 1015.9 0.0
19/03:30pm 21.1 16.1 3.8 32 8.3 WNW 19 26 10 14 1016.2 1016.0 0.0
19/03:00pm 21.2 15.8 4.3 33 8.2 NW 22 30 12 16 1016.4 1016.2 0.0
19/02:30pm 20.7 15.8 3.9 33 8.1 NW 19 28 10 15 1016.6 1016.4 0.0
19/02:00pm 20.1 14.5 3.3 33 8.0 W 22 33 12 18 1016.8 1016.6 0.0
19/01:30pm 21.2 16.2 4.7 34 8.1 WNW 20 30 11 16 1017.1 1016.9 0.0
19/01:06pm 20.4 15.3 4.0 34 7.9 WNW 20 57 11 31 1017.4 1017.2 0.0
19/01:00pm 20.3 15.3 4.8 36 7.6 WNW 20 32 11 17 1017.8 1017.6 0.0
19/12:30pm 20.3 15.3 4.8 36 7.6 WNW 20 41 11 22 1018.2 1018.0 0.0
19/12:00pm 20.5 15.9 5.7 38 7.4 WNW 19 28 10 15 1018.8 1018.6 0.0
19/11:30am 20.0 15.1 5.3 38 7.2 NW 20 30 11 16 1019.2 1019.0 0.0
19/11:00am 19.5 15.3 7.3 45 6.2 NNW 19 26 10 14 1019.6 1019.4 0.0
19/10:30am 19.4 14.9 6.8 44 6.4 NW 20 28 11 15 1019.8 1019.6 0.0
19/10:00am 18.4 13.8 6.3 45 6.0 NW 20 28 11 15 1020.0 1019.8 0.0
19/09:30am 17.9 13.2 7.6 51 5.2 NNE 22 28 12 15 1020.3 1020.1 0.0
19/09:00am 15.9 11.4 6.9 55 4.4 N 20 24 11 13 1020.5 1020.4 0.0
19/08:30am 13.5 8.5 6.6 63 3.3 N 22 26 12 14 1020.7 1020.6 0.0
19/08:00am 10.3 6.1 5.9 74 2.0 N 17 20 9 11 1020.6 1020.5 0.0
19/07:30am 9.1 5.0 6.0 81 1.4 N 17 20 9 11 1020.7 1020.6 0.0
19/07:00am 6.9 3.0 5.2 89 0.8 N 15 17 8 9 1020.6 1020.5 0.0
19/06:30am 6.3 2.2 4.5 88 0.8 N 15 17 8 9 1020.5 1020.4 0.0
19/06:00am 6.4 3.5 4.6 88 0.8 NNW 9 15 5 8 1020.5 1020.4 0.0
19/05:30am 5.3 2.1 3.2 86 0.9 N 9 13 5 7 1020.4 1020.2 0.0
19/05:00am 5.2 1.9 2.7 84 1.0 N 9 13 5 7 1020.4 1020.2 0.0
19/04:30am 6.1 2.9 3.3 82 1.2 N 9 11 5 6 1020.5 1020.4 0.0
19/04:00am 8.1 4.8 4.7 79 1.5 N 11 13 6 7 1020.6 1020.5 0.0
19/03:30am 8.4 4.4 4.8 78 1.6 N 15 17 8 9 1020.5 1020.4 0.0
19/03:00am 8.5 5.3 4.9 78 1.6 NW 11 13 6 7 1020.6 1020.5 0.0
19/02:30am 9.0 5.4 5.2 77 1.7 WNW 13 13 7 7 1020.9 1020.8 0.0
19/02:00am 8.8 5.2 5.2 78 1.6 WNW 13 15 7 8 1021.3 1021.2 0.0
19/01:30am 9.4 7.5 4.8 73 2.1 W 4 9 2 5 1021.7 1021.6 0.0
19/01:00am 10.0 7.7 5.0 71 2.3 W 6 7 3 4 1021.9 1021.8 0.0
19/12:30am 10.6 8.1 4.9 68 2.6 WNW 7 9 4 5 1022.0 1021.9 0.0
19/12:00am 11.0 8.2 5.1 67 2.7 SW 9 13 5 7 1022.2 1022.1 0.0
 
Date/Time
CST
Temp
°C
App
Temp
°C
Dew
Point
°C
Rel
Hum
%
Delta-T
°C
Wind Press
QNH
hPa
Press
MSL
hPa
Rain since
9am
mm
Dir  Spd
km/h
Gust
km/h
Spd
kts
Gust
kts
18/11:30pm 11.4 8.2 5.3 66 2.8 WNW 11 13 6 7 1022.5 1022.3 0.0
18/11:00pm 12.2 9.5 5.4 63 3.2 NNW 9 11 5 6 1022.9 1022.7 0.0
18/10:30pm 12.3 10.0 5.0 61 3.4 N 6 7 3 4 1023.1 1022.9 0.0
18/10:00pm 12.0 10.2 5.2 63 3.2 WNW 4 9 2 5 1023.1 1022.9 0.0
18/09:30pm 12.7 10.4 5.6 62 3.3 WSW 7 9 4 5 1023.2 1023.0 0.0
18/09:00pm 13.7 11.1 6.1 60 3.6 W 9 11 5 6 1023.3 1023.1 0.0
18/08:30pm 14.9 13.6 6.0 55 4.3 W 2 7 1 4 1023.4 1023.2 0.0
18/08:00pm 15.0 12.8 6.0 55 4.3 W 7 7 4 4 1023.5 1023.3 0.0
18/07:30pm 14.8 12.6 5.3 53 4.5 SW 6 7 3 4 1023.7 1023.5 0.0
18/07:00pm 16.4 13.7 5.7 49 5.2 SSW 9 11 5 6 1023.7 1023.5 0.0
18/06:30pm 17.1 13.7 6.0 48 5.4 SW 13 17 7 9 1023.7 1023.5 0.0
18/06:00pm 17.4 13.9 7.2 51 5.1 SW 15 20 8 11 1023.5 1023.3 0.0
18/05:30pm 17.5 15.0 8.4 55 4.7 SSW 11 17 6 9 1023.5 1023.3 0.0
18/05:00pm 17.5 14.3 8.6 56 4.6 SSW 15 20 8 11 1023.3 1023.1 0.0
18/04:30pm 17.6 13.7 8.5 55 4.7 SSW 19 24 10 13 1023.2 1023.0 0.0
18/04:00pm 18.5 14.6 8.5 52 5.2 WSW 19 26 10 14 1023.3 1023.1 0.0
18/03:30pm 18.4 14.4 9.2 55 4.8 W 20 28 11 15 1023.4 1023.2 0.0
18/03:00pm 18.3 13.3 9.6 57 4.6 W 26 32 14 17 1023.4 1023.2 0.0
18/02:30pm 18.7 14.1 8.1 50 5.4 W 22 30 12 16 1023.4 1023.2 0.0
18/02:00pm 19.6 15.5 6.0 41 6.8 WSW 17 24 9 13 1023.6 1023.4 0.0
18/01:30pm 19.5 15.3 5.6 40 6.8 W 17 24 9 13 1023.8 1023.6 0.0
18/01:00pm 19.4 16.8 6.2 42 6.6 SSE 9 17 5 9 1024.2 1024.0 0.0
18/12:30pm 18.6 15.3 6.4 45 6.1 SSW 13 20 7 11 1025.0 1024.8 0.0
18/12:00pm 18.4 15.3 7.2 48 5.6 SSW 13 19 7 10 1025.4 1025.2 0.0
18/11:30am 18.5 14.9 6.7 46 5.9 WNW 15 20 8 11 1025.8 1025.6 0.0
18/11:00am 18.2 15.5 7.3 49 5.5 SW 11 17 6 9 1026.1 1025.9 0.0
18/10:30am 17.7 14.2 7.2 50 5.3 SW 15 26 8 14 1026.4 1026.2 0.0
18/10:00am 17.4 14.1 8.0 54 4.8 W 15 22 8 12 1026.6 1026.4 0.0
18/09:30am 16.8 14.9 9.0 60 4.0 N 9 13 5 7 1026.6 1026.4 0.0
18/09:00am 16.0 13.7 9.0 63 3.6 N 11 15 6 8 1026.7 1026.5 0.0
18/08:30am 14.7 11.7 7.5 62 3.6 N 13 15 7 8 1026.8 1026.6 0.0
18/08:00am 13.3 10.8 6.4 63 3.3 N 9 11 5 6 1026.7 1026.5 0.0
18/07:30am 12.8 9.9 6.6 66 3.0 NNE 11 15 6 8 1026.5 1026.3 0.0
18/07:00am 12.7 10.3 7.0 68 2.8 N 9 9 5 5 1026.5 1026.3 0.0
18/06:30am 12.2 9.3 6.5 68 2.7 NNW 11 15 6 8 1026.5 1026.3 0.0
18/06:00am 12.3 10.1 6.4 67 2.8 NNE 7 11 4 6 1026.4 1026.2 0.0
18/05:30am 12.5 9.7 6.8 68 2.7 N 11 11 6 6 1026.5 1026.3 0.0
18/05:00am 11.9 8.9 6.2 68 2.7 NNW 11 13 6 7 1026.4 1026.2 0.0
18/04:30am 11.9 8.9 6.2 68 2.7 N 11 11 6 6 1026.2 1026.0 0.0
18/04:00am 12.0 9.1 6.5 69 2.6 NNW 11 15 6 8 1026.4 1026.2 0.0
18/03:30am 10.9 7.7 5.0 67 2.7 N 11 11 6 6 1026.3 1026.1 0.0
18/03:00am 10.6 7.7 4.9 68 2.6 N 9 11 5 6 1026.6 1026.4 0.0
18/02:30am 11.0 8.3 5.7 70 2.4 NNW 9 11 5 6 1026.7 1026.5 0.0
18/02:00am 10.3 7.6 5.5 72 2.2 NNW 9 13 5 7 1027.1 1026.9 0.0
18/01:30am 10.1 7.6 4.9 70 2.3 N 7 11 4 6 1027.4 1027.2 0.0
18/01:00am 10.9 9.8 5.2 68 2.6 CALM 0 0 0 0 1027.4 1027.2 0.0
18/12:30am 10.5 9.7 6.3 75 2.0 CALM 0 0 0 0 1027.4 1027.2 0.0
18/12:00am 9.7 8.7 5.7 76 1.8 CALM 0 0 0 0 1027.5 1027.3 0.0
 
Date/Time
CST
Temp
°C
App
Temp
°C
Dew
Point
°C
Rel
Hum
%
Delta-T
°C
Wind Press
QNH
hPa
Press
MSL
hPa
Rain since
9am
mm
Dir  Spd
km/h
Gust
km/h
Spd
kts
Gust
kts
17/11:30pm 9.2 6.6 5.9 80 1.5 W 9 11 5 6 1027.6 1027.4 0.0
17/11:00pm 8.0 5.5 4.8 80 1.4 WSW 7 9 4 5 1027.9 1027.7 0.0
17/10:30pm 7.8 4.8 4.0 77 1.6 WSW 9 11 5 6 1028.0 1027.8 0.0
17/10:00pm 8.6 6.4 5.4 80 1.4 WSW 6 7 3 4 1028.0 1027.8 0.0
17/09:30pm 9.3 6.9 5.3 76 1.8 SW 7 9 4 5 1028.0 1027.8 0.0
17/09:00pm 9.6 6.8 5.0 73 2.1 SW 9 13 5 7 1027.9 1027.7 0.0
17/08:30pm 11.0 8.4 6.0 71 2.3 SW 9 13 5 7 1028.0 1027.8 0.0
17/08:00pm 11.4 8.1 4.4 62 3.2 SSE 11 13 6 7 1028.0 1027.8 0.0
17/07:30pm 13.7 10.4 6.6 62 3.4 SSW 13 17 7 9 1028.0 1027.8 0.0
17/07:00pm 14.4 10.9 5.5 55 4.2 SSW 13 17 7 9 1027.7 1027.5 0.0
17/06:30pm 15.8 11.5 5.1 49 5.1 S 17 22 9 12 1027.5 1027.3 0.0
17/06:00pm 16.4 11.6 4.8 46 5.5 S 19 26 10 14 1027.2 1027.0 0.0

Other formats

Comma delimited format used in spreadsheet applications
http://www.bom.gov.au/fwo/IDS60801/IDS60801.95670.axf

JavaScript Object Notation format (JSON) in row-major order
http://www.bom.gov.au/fwo/IDS60801/IDS60801.95670.json

Data quality

Most of these data are generated automatically and are frequently updated. Quality checks on data are not normally performed. It is possible for incorrect values to appear. Refer to information at About Latest Weather Observations and please check the disclaimer before using these data.